Time;durP1;ratioP1;P1;durP2;ratioP2;P2;SDS_P1;SDS_P2;PMS_P1;PMS_P2;Temp;Humidity;BMP_temperature;BMP_pressure;BME280_temperature;BME280_humidity;BME280_pressure;Samples;Min_cycle;Max_cycle;Signal;HPM_P1;HPM_P2
2021/04/10 00:00:11;;;;;;;;;;;19.70;57.20;;;;;;5054614;28;1043;-69
2021/04/10 00:02:38;;;;;;;;;;;19.70;57.20;;;;;;5054821;28;1357;-69
2021/04/10 00:05:05;;;;;;;;;;;19.70;57.20;;;;;;5054628;28;1298;-69
2021/04/10 00:07:30;;;;;;;;;;;19.70;57.20;;;;;;5053254;28;1978;-69
2021/04/10 00:09:56;;;;;;;;;;;19.70;57.20;;;;;;5054337;28;1048;-69
2021/04/10 00:12:21;;;;;;;;;;;19.70;57.20;;;;;;5054254;28;1060;-69
2021/04/10 00:14:46;;;;;;;;;;;19.70;57.80;;;;;;5052909;28;984;-68
2021/04/10 00:17:12;;;;;;;;;;;19.60;57.20;;;;;;5053664;28;1407;-69
2021/04/10 00:19:37;;;;;;;;;;;19.60;57.20;;;;;;5053954;28;1306;-69
2021/04/10 00:22:03;;;;;;;;;;;19.70;57.20;;;;;;5054535;28;1293;-69
2021/04/10 00:24:28;;;;;;;;;;;19.60;57.20;;;;;;5069684;28;1301;-69
2021/04/10 00:26:53;;;;;;;;;;;19.60;57.20;;;;;;5045324;28;1906;-69
2021/04/10 00:29:19;;;;;;;;;;;19.60;57.20;;;;;;5053926;28;1317;-69
2021/04/10 00:31:44;;;;;;;;;;;19.70;57.30;;;;;;5053932;28;1329;-69
2021/04/10 00:34:10;;;;;;;;;;;19.60;57.30;;;;;;5069487;28;1280;-69
2021/04/10 00:36:35;;;;;;;;;;;19.60;57.30;;;;;;5053580;28;1379;-69
2021/04/10 00:39:01;;;;;;;;;;;19.60;57.30;;;;;;5053271;28;1372;-69
2021/04/10 00:41:26;;;;;;;;;;;19.60;57.30;;;;;;5053769;28;1378;-69
2021/04/10 00:43:51;;;;;;;;;;;19.60;57.30;;;;;;5068938;28;1257;-69
2021/04/10 00:46:17;;;;;;;;;;;19.60;57.30;;;;;;5053205;28;2342;-69
2021/04/10 00:48:42;;;;;;;;;;;19.60;57.30;;;;;;5052941;28;1323;-69
2021/04/10 00:51:08;;;;;;;;;;;19.60;57.30;;;;;;5053742;28;1244;-69
2021/04/10 00:53:33;;;;;;;;;;;19.60;57.30;;;;;;5085876;28;1047;-69
2021/04/10 00:56:03;;;;;;;;;;;19.60;57.30;;;;;;5053385;28;1043;-69
2021/04/10 00:58:28;;;;;;;;;;;19.60;57.30;;;;;;5068198;28;1168;-69
2021/04/10 01:00:53;;;;;;;;;;;19.60;57.30;;;;;;5053026;28;1375;-69
2021/04/10 01:03:19;;;;;;;;;;;19.60;57.40;;;;;;5068966;28;1355;-69
2021/04/10 01:05:44;;;;;;;;;;;19.60;57.30;;;;;;5053089;28;1964;-69
2021/04/10 01:08:10;;;;;;;;;;;19.60;57.40;;;;;;5052770;28;1225;-69
2021/04/10 01:10:35;;;;;;;;;;;19.60;57.40;;;;;;5068532;28;1889;-69
2021/04/10 01:13:03;;;;;;;;;;;19.60;57.40;;;;;;5068161;28;1040;-69
2021/04/10 01:15:47;;;;;;;;;;;19.50;57.40;;;;;;5039997;28;1025;-69
2021/04/10 01:18:45;;;;;;;;;;;19.60;57.40;;;;;;5053074;28;1377;-68
2021/04/10 01:21:14;;;;;;;;;;;19.50;57.40;;;;;;5029879;28;1308;-68
2021/04/10 01:23:58;;;;;;;;;;;19.50;57.40;;;;;;5052812;28;1265;-68
2021/04/10 01:26:42;;;;;;;;;;;19.50;57.40;;;;;;5044409;28;1903;-70
2021/04/10 01:29:08;;;;;;;;;;;19.50;57.40;;;;;;5052325;28;1296;-68
2021/04/10 01:31:36;;;;;;;;;;;19.50;57.40;;;;;;5053374;28;1071;-69
2021/04/10 01:34:02;;;;;;;;;;;19.50;57.40;;;;;;5084680;28;1365;-69
2021/04/10 01:36:32;;;;;;;;;;;19.50;57.40;;;;;;5052784;28;1470;-70
2021/04/10 01:38:58;;;;;;;;;;;19.50;57.40;;;;;;5068294;28;1072;-69
2021/04/10 01:41:23;;;;;;;;;;;19.50;57.40;;;;;;5052942;28;1075;-70
2021/04/10 01:43:49;;;;;;;;;;;19.50;57.40;;;;;;5067806;28;1273;-70
2021/04/10 01:46:14;;;;;;;;;;;19.50;57.40;;;;;;5067995;28;1957;-69
2021/04/10 01:48:40;;;;;;;;;;;19.50;57.40;;;;;;5067052;28;1177;-70
2021/04/10 01:51:05;;;;;;;;;;;19.50;57.40;;;;;;5067896;28;1389;-69
2021/04/10 01:53:31;;;;;;;;;;;19.60;57.40;;;;;;5068309;28;1296;-69
2021/04/10 01:55:56;;;;;;;;;;;19.60;57.30;;;;;;5067283;28;983;-70
2021/04/10 01:58:22;;;;;;;;;;;19.60;57.30;;;;;;5066843;28;1302;-70
2021/04/10 02:00:47;;;;;;;;;;;19.60;57.30;;;;;;5067809;28;1375;-69
2021/04/10 02:03:15;;;;;;;;;;;19.60;57.30;;;;;;5067083;28;1315;-69
2021/04/10 02:05:41;;;;;;;;;;;19.60;57.20;;;;;;5055840;28;1906;-69
2021/04/10 02:08:07;;;;;;;;;;;19.60;57.20;;;;;;5050812;28;1493;-70
2021/04/10 02:10:32;;;;;;;;;;;19.60;57.20;;;;;;5033874;28;1343;-69
2021/04/10 02:12:57;;;;;;;;;;;19.60;57.20;;;;;;5052888;28;1251;-69
2021/04/10 02:15:23;;;;;;;;;;;19.60;57.20;;;;;;5051445;28;1116;-69
2021/04/10 02:17:48;;;;;;;;;;;19.60;57.20;;;;;;5031943;28;1408;-69
2021/04/10 02:20:14;;;;;;;;;;;19.60;57.20;;;;;;5051173;28;1096;-69
2021/04/10 02:22:42;;;;;;;;;;;19.60;57.20;;;;;;5033106;28;1287;-69
2021/04/10 02:25:08;;;;;;;;;;;19.60;57.10;;;;;;5034301;28;1480;-69
2021/04/10 02:27:34;;;;;;;;;;;19.60;57.10;;;;;;5033559;28;1954;-69
2021/04/10 02:29:59;;;;;;;;;;;19.60;57.10;;;;;;5050788;28;1241;-69
2021/04/10 02:32:29;;;;;;;;;;;19.70;57.20;;;;;;5032975;28;1250;-70
2021/04/10 02:34:59;;;;;;;;;;;19.70;57.20;;;;;;5011717;28;1590;-70
2021/04/10 02:37:25;;;;;;;;;;;19.60;57.10;;;;;;5032161;28;1391;-68
2021/04/10 02:39:51;;;;;;;;;;;19.60;57.10;;;;;;5066013;28;1238;-70
2021/04/10 02:42:16;;;;;;;;;;;19.60;57.10;;;;;;5032903;28;1350;-69
2021/04/10 02:44:47;;;;;;;;;;;19.60;57.10;;;;;;5066318;28;1206;-69
2021/04/10 02:47:12;;;;;;;;;;;19.60;57.10;;;;;;5029649;28;1902;-68
2021/04/10 02:49:41;;;;;;;;;;;19.70;57.10;;;;;;5065557;28;1203;-68
2021/04/10 02:52:07;;;;;;;;;;;19.70;57.10;;;;;;5032622;28;1216;-69
2021/04/10 02:54:33;;;;;;;;;;;19.60;57.10;;;;;;5050786;28;1196;-69
2021/04/10 02:57:04;;;;;;;;;;;19.70;57.10;;;;;;5032582;28;1353;-69
2021/04/10 02:59:29;;;;;;;;;;;19.60;57.00;;;;;;5074126;28;1462;-70
2021/04/10 03:01:55;;;;;;;;;;;19.70;57.10;;;;;;5032315;28;1218;-70
2021/04/10 03:04:20;;;;;;;;;;;19.60;57.00;;;;;;5050870;28;1176;-69
2021/04/10 03:06:46;;;;;;;;;;;19.60;57.00;;;;;;5029037;28;1902;-69
2021/04/10 03:09:11;;;;;;;;;;;19.70;57.00;;;;;;5064729;28;1167;-70
2021/04/10 03:11:37;;;;;;;;;;;19.70;57.00;;;;;;5033979;28;1184;-70
2021/04/10 03:14:05;;;;;;;;;;;19.70;56.80;;;;;;5064775;28;1242;-70
2021/04/10 03:16:31;;;;;;;;;;;19.80;56.80;;;;;;5029980;28;1392;-70
2021/04/10 03:18:56;;;;;;;;;;;19.90;56.70;;;;;;5031854;28;1295;-70
2021/04/10 03:21:22;;;;;;;;;;;20.00;56.50;;;;;;5032644;28;1224;-69
2021/04/10 03:23:47;;;;;;;;;;;20.10;56.40;;;;;;5052327;28;1333;-69
2021/04/10 03:26:13;;;;;;;;;;;20.10;56.20;;;;;;5039752;28;1906;-69
2021/04/10 03:28:38;;;;;;;;;;;20.20;56.00;;;;;;5066572;28;1353;-70
2021/04/10 03:31:04;;;;;;;;;;;20.30;55.80;;;;;;5067123;28;1274;-69
2021/04/10 03:33:30;;;;;;;;;;;20.40;55.60;;;;;;5067881;28;1340;-69
2021/04/10 03:35:56;;;;;;;;;;;20.40;55.40;;;;;;5067489;28;1600;-69
2021/04/10 03:38:21;;;;;;;;;;;20.50;55.30;;;;;;5066984;28;1311;-69
2021/04/10 03:40:47;;;;;;;;;;;20.50;55.10;;;;;;5067129;28;1169;-69
2021/04/10 03:43:12;;;;;;;;;;;20.60;55.10;;;;;;5067321;28;1372;-69
2021/04/10 03:45:37;;;;;;;;;;;20.60;55.00;;;;;;5052123;28;1902;-69
2021/04/10 03:48:03;;;;;;;;;;;20.70;55.50;;;;;;5066602;28;1278;-70
2021/04/10 03:50:28;;;;;;;;;;;20.80;54.80;;;;;;5052000;28;1319;-70
2021/04/10 03:52:54;;;;;;;;;;;20.80;54.70;;;;;;5034161;28;1268;-70
2021/04/10 03:55:19;;;;;;;;;;;20.80;54.60;;;;;;5051405;28;1267;-70
2021/04/10 03:57:45;;;;;;;;;;;20.80;54.60;;;;;;5066260;28;1241;-70
2021/04/10 04:00:11;;;;;;;;;;;20.90;54.60;;;;;;5050330;28;1360;-69
2021/04/10 04:02:37;;;;;;;;;;;20.90;54.50;;;;;;5052139;28;1056;-70
2021/04/10 04:05:03;;;;;;;;;;;20.90;54.40;;;;;;5051413;28;1304;-70
2021/04/10 04:07:28;;;;;;;;;;;21.00;54.40;;;;;;5050769;28;1906;-70
2021/04/10 04:09:54;;;;;;;;;;;20.90;54.30;;;;;;5051783;28;1228;-70
2021/04/10 04:12:19;;;;;;;;;;;21.00;54.30;;;;;;5051429;28;1266;-71
2021/04/10 04:14:45;;;;;;;;;;;21.00;54.30;;;;;;5051134;28;1403;-70
2021/04/10 04:17:10;;;;;;;;;;;21.00;54.30;;;;;;5051318;28;1255;-70
2021/04/10 04:19:35;;;;;;;;;;;21.00;54.20;;;;;;5054833;28;1312;-69
2021/04/10 04:22:01;;;;;;;;;;;21.00;54.20;;;;;;5055001;28;1269;-70
2021/04/10 04:24:27;;;;;;;;;;;21.10;54.20;;;;;;5087742;28;1074;-71
2021/04/10 04:26:52;;;;;;;;;;;21.10;54.30;;;;;;5070427;28;1902;-71
2021/04/10 04:29:18;;;;;;;;;;;21.10;54.20;;;;;;5069291;28;1352;-71
2021/04/10 04:31:43;;;;;;;;;;;21.10;54.20;;;;;;5070625;28;1291;-71
2021/04/10 04:34:09;;;;;;;;;;;21.10;54.20;;;;;;5055239;28;1275;-71
2021/04/10 04:36:34;;;;;;;;;;;21.10;54.20;;;;;;5054986;28;1264;-71
2021/04/10 04:38:59;;;;;;;;;;;21.10;54.20;;;;;;5053741;28;1383;-71
2021/04/10 04:41:25;;;;;;;;;;;21.10;54.20;;;;;;5054980;28;1044;-71
2021/04/10 04:43:50;;;;;;;;;;;21.10;54.20;;;;;;5055009;28;1272;-69
2021/04/10 04:46:16;;;;;;;;;;;21.10;54.20;;;;;;5070185;28;1906;-70
2021/04/10 04:48:41;;;;;;;;;;;21.10;54.20;;;;;;5053729;28;1312;-70
2021/04/10 04:51:06;;;;;;;;;;;21.10;54.20;;;;;;5054494;28;1111;-70
2021/04/10 04:53:32;;;;;;;;;;;21.10;54.20;;;;;;5054867;28;1001;-70
2021/04/10 04:55:57;;;;;;;;;;;21.10;54.30;;;;;;5070227;28;1330;-68
2021/04/10 04:58:23;;;;;;;;;;;21.10;54.20;;;;;;5053298;28;1340;-70
2021/04/10 05:00:48;;;;;;;;;;;21.10;54.30;;;;;;5070348;28;1353;-70
2021/04/10 05:03:14;;;;;;;;;;;21.10;54.30;;;;;;5054449;28;1199;-68
2021/04/10 05:05:39;;;;;;;;;;;21.10;54.30;;;;;;5069864;28;1961;-68
2021/04/10 05:08:05;;;;;;;;;;;21.10;54.40;;;;;;5069277;28;1302;-69
2021/04/10 05:10:30;;;;;;;;;;;21.00;54.40;;;;;;5069574;28;1418;-70
2021/04/10 05:12:55;;;;;;;;;;;21.00;54.40;;;;;;5069640;28;1352;-70
2021/04/10 05:15:21;;;;;;;;;;;21.00;54.40;;;;;;5053752;28;1245;-69
2021/04/10 05:17:46;;;;;;;;;;;21.00;54.50;;;;;;5053607;28;1295;-69
2021/04/10 05:20:12;;;;;;;;;;;21.00;54.60;;;;;;5054403;28;1441;-69
2021/04/10 05:22:37;;;;;;;;;;;21.00;54.60;;;;;;5070055;28;1268;-69
2021/04/10 05:25:03;;;;;;;;;;;20.90;54.60;;;;;;5050336;28;1307;-70
2021/04/10 05:27:29;;;;;;;;;;;20.90;54.60;;;;;;5068192;28;1893;-70
2021/04/10 05:29:54;;;;;;;;;;;20.90;54.60;;;;;;5053442;28;1330;-70
2021/04/10 05:32:20;;;;;;;;;;;20.90;54.70;;;;;;5054077;28;1351;-70
2021/04/10 05:34:45;;;;;;;;;;;20.90;54.70;;;;;;5069048;28;1387;-69
2021/04/10 05:37:10;;;;;;;;;;;20.90;54.80;;;;;;5053423;28;1268;-69
2021/04/10 05:39:36;;;;;;;;;;;20.80;54.80;;;;;;5053455;28;1711;-69
2021/04/10 05:42:01;;;;;;;;;;;20.90;54.90;;;;;;5053910;28;1281;-69
2021/04/10 05:44:27;;;;;;;;;;;20.80;54.90;;;;;;5069427;28;1302;-69
2021/04/10 05:46:52;;;;;;;;;;;20.80;54.90;;;;;;5053934;28;1959;-69
2021/04/10 05:49:18;;;;;;;;;;;20.80;55.00;;;;;;5052289;28;1056;-70
2021/04/10 05:51:43;;;;;;;;;;;20.80;55.00;;;;;;5054163;28;1066;-70
2021/04/10 05:54:08;;;;;;;;;;;20.80;55.00;;;;;;5053310;28;1332;-70
2021/04/10 05:56:34;;;;;;;;;;;20.80;55.10;;;;;;5053494;28;1400;-69
2021/04/10 05:59:00;;;;;;;;;;;20.80;55.10;;;;;;5068153;28;1384;-69
2021/04/10 06:01:28;;;;;;;;;;;20.80;55.10;;;;;;5068642;28;1397;-69
2021/04/10 06:03:55;;;;;;;;;;;20.70;55.10;;;;;;5053323;28;1283;-69
2021/04/10 06:06:20;;;;;;;;;;;20.70;55.10;;;;;;5053026;28;1902;-70
2021/04/10 06:08:45;;;;;;;;;;;20.70;55.20;;;;;;5052445;28;1354;-70
2021/04/10 06:11:11;;;;;;;;;;;20.70;55.20;;;;;;5068473;28;1301;-70
2021/04/10 06:13:36;;;;;;;;;;;20.70;55.20;;;;;;5085747;28;1334;-70
2021/04/10 06:16:04;;;;;;;;;;;20.70;55.30;;;;;;5053410;28;1273;-70
2021/04/10 06:18:29;;;;;;;;;;;20.70;55.30;;;;;;5052300;28;1275;-70
2021/04/10 06:20:55;;;;;;;;;;;20.70;55.40;;;;;;5041063;28;2116;-67
2021/04/10 06:23:20;;;;;;;;;;;20.60;55.30;;;;;;5048592;28;963;-67
2021/04/10 06:25:46;;;;;;;;;;;20.60;55.40;;;;;;5046555;28;1945;-68
2021/04/10 06:28:11;;;;;;;;;;;20.60;55.40;;;;;;5033246;28;1390;-68
2021/04/10 06:30:36;;;;;;;;;;;20.60;55.50;;;;;;5074448;28;1187;-68
2021/04/10 06:33:02;;;;;;;;;;;20.60;55.50;;;;;;5052335;28;1048;-69
2021/04/10 06:35:27;;;;;;;;;;;20.60;55.50;;;;;;5051807;28;1292;-67
2021/04/10 06:37:53;;;;;;;;;;;20.50;55.50;;;;;;5066103;28;1317;-67
2021/04/10 06:40:18;;;;;;;;;;;20.50;55.60;;;;;;5051714;28;1291;-67
2021/04/10 06:42:44;;;;;;;;;;;20.50;55.60;;;;;;5052096;28;1293;-67
2021/04/10 06:45:09;;;;;;;;;;;20.50;55.60;;;;;;5067280;28;1059;-67
2021/04/10 06:47:35;;;;;;;;;;;20.50;55.60;;;;;;5050840;28;1914;-68
2021/04/10 06:50:01;;;;;;;;;;;20.50;55.70;;;;;;5051953;28;1040;-67
2021/04/10 06:52:27;;;;;;;;;;;20.50;55.70;;;;;;5051701;28;1338;-69
2021/04/10 06:55:12;;;;;;;;;;;20.40;55.70;;;;;;5067176;28;1122;-69
2021/04/10 06:57:44;;;;;;;;;;;20.40;55.70;;;;;;5067389;28;1396;-69
2021/04/10 07:00:10;;;;;;;;;;;20.50;55.80;;;;;;5068089;28;1185;-69
2021/04/10 07:02:37;;;;;;;;;;;20.40;55.80;;;;;;5051234;28;1357;-69
2021/04/10 07:05:02;;;;;;;;;;;20.40;55.80;;;;;;5052499;28;1243;-69
2021/04/10 07:07:28;;;;;;;;;;;20.40;55.80;;;;;;5051308;28;1898;-67
2021/04/10 07:09:54;;;;;;;;;;;20.40;55.80;;;;;;5084406;28;1297;-66
2021/04/10 07:12:19;;;;;;;;;;;20.40;55.80;;;;;;5067830;28;1072;-68
2021/04/10 07:14:44;;;;;;;;;;;20.40;55.90;;;;;;5067748;28;1123;-68
2021/04/10 07:17:13;;;;;;;;;;;20.40;55.90;;;;;;5051454;28;1326;-69
2021/04/10 07:19:38;;;;;;;;;;;20.40;55.90;;;;;;5067747;28;1364;-67
2021/04/10 07:22:08;;;;;;;;;;;20.40;55.90;;;;;;5051865;28;1341;-67
2021/04/10 07:24:36;;;;;;;;;;;20.40;55.90;;;;;;5052209;28;1335;-67
2021/04/10 07:27:02;;;;;;;;;;;20.40;56.00;;;;;;5040651;28;1938;-66
2021/04/10 07:29:36;;;;;;;;;;;20.30;55.90;;;;;;5052369;28;1294;-66
2021/04/10 07:32:20;;;;;;;;;;;20.30;56.00;;;;;;5052226;28;1354;-67
2021/04/10 07:34:46;;;;;;;;;;;20.30;56.00;;;;;;5052039;28;1372;-68
2021/04/10 07:37:11;;;;;;;;;;;20.30;56.10;;;;;;5050888;28;1359;-68
2021/04/10 07:39:44;;;;;;;;;;;20.30;56.10;;;;;;5067550;28;1228;-66
2021/04/10 07:42:09;;;;;;;;;;;20.30;56.10;;;;;;5067711;28;1325;-66
2021/04/10 07:44:36;;;;;;;;;;;20.30;56.10;;;;;;5052105;28;1365;-66
2021/04/10 07:47:05;;;;;;;;;;;20.30;56.10;;;;;;5050412;28;1967;-67
2021/04/10 07:49:30;;;;;;;;;;;20.30;56.20;;;;;;5067180;28;1056;-67
2021/04/10 07:51:56;;;;;;;;;;;20.30;56.20;;;;;;5052009;28;1373;-68
2021/04/10 07:54:28;;;;;;;;;;;20.20;56.20;;;;;;5054253;28;1710;-66
2021/04/10 07:57:00;;;;;;;;;;;20.20;56.20;;;;;;5071082;28;1272;-66
2021/04/10 07:59:26;;;;;;;;;;;20.20;56.20;;;;;;5070271;28;1361;-66
2021/04/10 08:01:52;;;;;;;;;;;20.20;56.20;;;;;;5055764;28;1289;-68
2021/04/10 08:04:18;;;;;;;;;;;20.20;56.20;;;;;;5071217;28;1302;-68
2021/04/10 08:06:53;;;;;;;;;;;20.20;56.30;;;;;;5054840;28;1992;-66
2021/04/10 08:09:26;;;;;;;;;;;20.20;56.30;;;;;;5070713;28;1270;-68
2021/04/10 08:11:51;;;;;;;;;;;20.20;56.30;;;;;;5055804;28;1145;-68
2021/04/10 08:14:16;;;;;;;;;;;20.20;56.40;;;;;;5054630;28;1155;-66
2021/04/10 08:16:42;;;;;;;;;;;20.20;56.40;;;;;;5070821;28;1388;-66
2021/04/10 08:19:08;;;;;;;;;;;20.20;56.40;;;;;;5054681;28;1271;-68
2021/04/10 08:21:33;;;;;;;;;;;20.20;57.00;;;;;;5070733;28;1501;-66
2021/04/10 08:23:59;;;;;;;;;;;20.10;56.40;;;;;;5055251;28;1430;-68
2021/04/10 08:26:25;;;;;;;;;;;20.20;56.40;;;;;;5069942;28;1886;-67
2021/04/10 08:28:50;;;;;;;;;;;20.20;56.40;;;;;;5085264;22;2389;-69
2021/04/10 08:31:16;;;;;;;;;;;20.20;56.50;;;;;;5055471;28;1352;-69
2021/04/10 08:33:41;;;;;;;;;;;20.20;56.50;;;;;;5070893;28;1639;-68
2021/04/10 08:36:07;;;;;;;;;;;20.10;56.40;;;;;;5055588;28;1656;-69
2021/04/10 08:38:33;;;;;;;;;;;20.10;56.50;;;;;;5055531;28;1426;-70
2021/04/10 08:40:59;;;;;;;;;;;20.10;56.50;;;;;;5042080;28;1133;-70
2021/04/10 08:43:25;;;;;;;;;;;20.10;56.50;;;;;;5054286;28;807;-70
2021/04/10 08:45:51;;;;;;;;;;;20.10;56.50;;;;;;5053979;28;1910;-68
2021/04/10 08:48:18;;;;;;;;;;;20.10;56.50;;;;;;5053808;28;1381;-68
2021/04/10 08:50:44;;;;;;;;;;;20.10;56.50;;;;;;5054029;28;1727;-68
2021/04/10 08:53:09;;;;;;;;;;;20.10;56.60;;;;;;5055379;28;1365;-69
2021/04/10 08:55:35;;;;;;;;;;;20.10;56.60;;;;;;5054156;28;1393;-69
2021/04/10 08:58:15;;;;;;;;;;;20.10;56.60;;;;;;5053740;28;1305;-68
2021/04/10 09:00:40;;;;;;;;;;;20.10;56.60;;;;;;5053925;28;1733;-69
2021/04/10 09:03:05;;;;;;;;;;;20.10;56.60;;;;;;5053658;28;1602;-69
2021/04/10 09:05:50;;;;;;;;;;;20.10;56.70;;;;;;5058437;28;1681;-69
2021/04/10 09:08:28;;;;;;;;;;;20.10;56.70;;;;;;5059397;28;1565;-69
2021/04/10 09:10:57;;;;;;;;;;;20.10;56.70;;;;;;5054963;28;1371;-69
2021/04/10 09:13:23;;;;;;;;;;;20.00;56.60;;;;;;5054591;28;1612;-66
2021/04/10 09:15:49;;;;;;;;;;;20.10;56.70;;;;;;5053402;28;1630;-66
2021/04/10 09:18:15;;;;;;;;;;;20.10;56.70;;;;;;5054435;28;1295;-68
2021/04/10 09:20:43;;;;;;;;;;;20.10;56.70;;;;;;5053513;28;1382;-67
2021/04/10 09:23:09;;;;;;;;;;;20.10;56.70;;;;;;5054650;28;1538;-67
2021/04/10 09:25:35;;;;;;;;;;;20.10;56.70;;;;;;5046144;28;1352;-67
2021/04/10 09:28:04;;;;;;;;;;;20.00;56.70;;;;;;5050212;28;2001;-67
2021/04/10 09:30:36;;;;;;;;;;;20.00;56.80;;;;;;5053676;28;1430;-67
2021/04/10 09:33:04;;;;;;;;;;;20.00;56.70;;;;;;5054749;28;1446;-67
2021/04/10 09:35:34;;;;;;;;;;;20.00;56.70;;;;;;5036704;28;1544;-66
2021/04/10 09:38:00;;;;;;;;;;;20.00;56.70;;;;;;5054697;28;1615;-65
2021/04/10 09:40:44;;;;;;;;;;;20.00;56.80;;;;;;5054562;28;1309;-67
2021/04/10 09:43:09;;;;;;;;;;;20.00;56.80;;;;;;5053302;28;1365;-68
2021/04/10 09:45:35;;;;;;;;;;;20.00;56.80;;;;;;5062135;28;1349;-68
2021/04/10 09:48:04;;;;;;;;;;;20.00;56.80;;;;;;5053854;28;1910;-68
2021/04/10 09:50:39;;;;;;;;;;;20.00;56.80;;;;;;5054237;28;1404;-68
2021/04/10 09:53:05;;;;;;;;;;;20.00;56.80;;;;;;5054476;28;1317;-67
2021/04/10 09:55:31;;;;;;;;;;;20.00;56.80;;;;;;5054324;28;1676;-66
2021/04/10 09:57:57;;;;;;;;;;;20.00;56.80;;;;;;5053896;28;1395;-67
2021/04/10 10:00:25;;;;;;;;;;;20.00;57.40;;;;;;5052717;28;1412;-67
2021/04/10 10:02:52;;;;;;;;;;;20.00;57.40;;;;;;5054386;28;1134;-66
2021/04/10 10:05:17;;;;;;;;;;;20.00;56.80;;;;;;5055661;28;1333;-66
2021/04/10 10:07:42;;;;;;;;;;;20.00;56.80;;;;;;5062581;28;1902;-66
2021/04/10 10:10:08;;;;;;;;;;;20.00;56.80;;;;;;5052600;28;1411;-67
2021/04/10 10:12:34;;;;;;;;;;;20.00;56.80;;;;;;5052586;28;1693;-66
2021/04/10 10:14:59;;;;;;;;;;;20.00;57.40;;;;;;5035193;28;1469;-66
2021/04/10 10:17:28;;;;;;;;;;;20.00;56.80;;;;;;5052834;28;1476;-67
2021/04/10 10:20:09;;;;;;;;;;;20.00;56.80;;;;;;5052656;28;1641;-66
2021/04/10 10:22:34;;;;;;;;;;;20.00;57.40;;;;;;5053792;28;1599;-66
2021/04/10 10:25:03;;;;;;;;;;;20.00;56.80;;;;;;5048965;28;1725;-67
2021/04/10 10:27:42;;;;;;;;;;;19.90;56.80;;;;;;5045293;28;1894;-67
2021/04/10 10:30:13;;;;;;;;;;;20.00;56.80;;;;;;5039900;28;1385;-68
2021/04/10 10:32:41;;;;;;;;;;;19.90;56.80;;;;;;5053729;28;1363;-68
2021/04/10 10:35:07;;;;;;;;;;;19.90;56.80;;;;;;5052470;28;1486;-68
2021/04/10 10:37:33;;;;;;;;;;;19.90;56.80;;;;;;5053289;28;1280;-69
2021/04/10 10:39:58;;;;;;;;;;;19.90;56.80;;;;;;5052334;28;1610;-67
2021/04/10 10:42:25;;;;;;;;;;;19.90;56.80;;;;;;5053300;28;1666;-67
2021/04/10 10:44:50;;;;;;;;;;;19.90;56.80;;;;;;5053544;28;1368;-67
2021/04/10 10:47:16;;;;;;;;;;;19.90;56.80;;;;;;5052598;28;1910;-68
2021/04/10 10:49:47;;;;;;;;;;;19.90;56.80;;;;;;5053238;28;1740;-67
2021/04/10 10:52:17;;;;;;;;;;;19.90;56.80;;;;;;5052039;28;1131;-67
2021/04/10 10:54:42;;;;;;;;;;;19.90;56.80;;;;;;5053162;28;1596;-67
2021/04/10 10:57:08;;;;;;;;;;;19.90;56.90;;;;;;5052664;28;1433;-68
2021/04/10 10:59:34;;;;;;;;;;;19.90;56.80;;;;;;5051914;28;1378;-68
2021/04/10 11:01:59;;;;;;;;;;;19.90;56.80;;;;;;5052966;28;1621;-68
2021/04/10 11:04:28;;;;;;;;;;;19.90;56.90;;;;;;5053124;28;1640;-67
2021/04/10 11:06:57;;;;;;;;;;;19.90;56.80;;;;;;5051545;28;1898;-65
2021/04/10 11:09:23;;;;;;;;;;;19.90;56.80;;;;;;5052375;28;1269;-66
2021/04/10 11:11:52;;;;;;;;;;;19.90;56.80;;;;;;5047968;28;1407;-66
2021/04/10 11:14:21;;;;;;;;;;;19.90;56.80;;;;;;5044423;28;1307;-67
2021/04/10 11:16:47;;;;;;;;;;;19.90;56.90;;;;;;5046999;28;1303;-68
2021/04/10 11:19:23;;;;;;;;;;;19.90;56.90;;;;;;5049044;28;1371;-67
2021/04/10 11:21:49;;;;;;;;;;;19.90;56.90;;;;;;5052945;28;1615;-67
2021/04/10 11:24:14;;;;;;;;;;;19.90;56.80;;;;;;5051231;28;1322;-67
2021/04/10 11:26:46;;;;;;;;;;;19.90;56.90;;;;;;5040354;28;2294;-66
2021/04/10 11:29:12;;;;;;;;;;;19.90;56.90;;;;;;5054325;28;1643;-67
2021/04/10 11:31:37;;;;;;;;;;;19.90;56.90;;;;;;5053645;28;1343;-67
2021/04/10 11:34:23;;;;;;;;;;;19.90;56.90;;;;;;5046983;28;1266;-68
2021/04/10 11:36:51;;;;;;;;;;;19.90;56.90;;;;;;5051372;28;1164;-66
2021/04/10 11:39:17;;;;;;;;;;;19.90;56.90;;;;;;5056402;28;1405;-67
2021/04/10 11:41:46;;;;;;;;;;;19.90;56.90;;;;;;5056883;28;1646;-65
2021/04/10 11:44:12;;;;;;;;;;;19.90;56.90;;;;;;5055576;28;1405;-66
2021/04/10 11:46:37;;;;;;;;;;;19.90;56.90;;;;;;5056450;28;1898;-66
2021/04/10 11:49:03;;;;;;;;;;;19.90;56.90;;;;;;5038298;28;1670;-66
2021/04/10 11:51:28;;;;;;;;;;;19.90;56.90;;;;;;5055334;28;1578;-66
2021/04/10 11:53:54;;;;;;;;;;;19.90;56.90;;;;;;5056486;28;1311;-68
2021/04/10 11:56:26;;;;;;;;;;;19.90;56.80;;;;;;5056126;28;1587;-69
2021/04/10 11:59:05;;;;;;;;;;;19.90;56.80;;;;;;5050665;28;1270;-68
2021/04/10 12:01:30;;;;;;;;;;;20.00;56.80;;;;;;5048016;28;1273;-69
2021/04/10 12:03:56;;;;;;;;;;;20.00;56.60;;;;;;5048977;28;1329;-68
2021/04/10 12:06:25;;;;;;;;;;;20.10;56.60;;;;;;5051208;28;1902;-67
2021/04/10 12:08:51;;;;;;;;;;;20.10;56.40;;;;;;5042823;28;1346;-66
2021/04/10 12:11:16;;;;;;;;;;;20.20;56.30;;;;;;5047898;28;940;-66
2021/04/10 12:13:42;;;;;;;;;;;20.30;56.10;;;;;;5055244;28;1268;-67
2021/04/10 12:16:07;;;;;;;;;;;20.30;56.00;;;;;;5054920;28;1636;-67
2021/04/10 12:18:32;;;;;;;;;;;20.40;55.90;;;;;;5055282;28;1376;-67
2021/04/10 12:20:59;;;;;;;;;;;20.40;55.70;;;;;;5055576;28;1095;-67
2021/04/10 12:23:24;;;;;;;;;;;20.50;55.60;;;;;;5055549;28;1384;-68
2021/04/10 12:25:50;;;;;;;;;;;20.50;55.50;;;;;;5043892;28;1953;-66
2021/04/10 12:28:16;;;;;;;;;;;20.60;55.40;;;;;;5052995;28;1284;-67
2021/04/10 12:30:41;;;;;;;;;;;20.60;55.30;;;;;;5055583;28;1375;-67
2021/04/10 12:33:07;;;;;;;;;;;20.60;55.30;;;;;;5036239;28;1417;-65
2021/04/10 12:35:32;;;;;;;;;;;20.60;55.20;;;;;;5046228;28;1283;-66
2021/04/10 12:37:58;;;;;;;;;;;20.60;55.20;;;;;;5047910;28;1340;-69
2021/04/10 12:40:23;;;;;;;;;;;20.60;55.20;;;;;;5047453;28;1836;-69
2021/04/10 12:42:49;;;;;;;;;;;20.60;55.20;;;;;;5047361;28;1008;-68
2021/04/10 12:45:14;;;;;;;;;;;20.60;55.20;;;;;;5039004;28;1111;-67
2021/04/10 12:47:40;;;;;;;;;;;20.60;55.20;;;;;;5046008;28;1973;-67
2021/04/10 12:50:06;;;;;;;;;;;20.60;55.20;;;;;;5046118;28;1832;-66
2021/04/10 12:52:31;;;;;;;;;;;20.60;55.20;;;;;;5069260;28;1121;-65
2021/04/10 12:54:57;;;;;;;;;;;20.60;55.20;;;;;;5048381;28;1179;-66
2021/04/10 12:57:23;;;;;;;;;;;20.70;55.20;;;;;;5042292;28;1379;-70
2021/04/10 12:59:48;;;;;;;;;;;20.70;55.20;;;;;;5053707;28;976;-69
2021/04/10 13:02:14;;;;;;;;;;;20.70;55.20;;;;;;5053672;28;1389;-69
2021/04/10 13:04:39;;;;;;;;;;;20.70;55.10;;;;;;5053765;28;1379;-70
2021/04/10 13:07:04;;;;;;;;;;;20.80;55.10;;;;;;5066744;28;1909;-69
2021/04/10 13:09:30;;;;;;;;;;;20.80;55.10;;;;;;5049534;28;1106;-69
2021/04/10 13:11:56;;;;;;;;;;;20.80;54.90;;;;;;5053460;28;1326;-70
2021/04/10 13:14:21;;;;;;;;;;;20.80;54.90;;;;;;5053076;28;1075;-70
2021/04/10 13:16:47;;;;;;;;;;;20.80;54.90;;;;;;5053130;28;1035;-70
2021/04/10 13:19:13;;;;;;;;;;;20.80;54.80;;;;;;5046629;28;1523;-70
2021/04/10 13:21:38;;;;;;;;;;;20.80;54.90;;;;;;5050418;28;1099;-70
2021/04/10 13:24:03;;;;;;;;;;;20.90;54.80;;;;;;5052903;28;1356;-70
2021/04/10 13:26:30;;;;;;;;;;;20.90;54.80;;;;;;5043559;28;1914;-69
2021/04/10 13:28:56;;;;;;;;;;;20.90;54.70;;;;;;5052370;28;1407;-70
2021/04/10 13:31:21;;;;;;;;;;;20.90;54.70;;;;;;5052758;28;1269;-69
2021/04/10 13:33:46;;;;;;;;;;;21.00;54.70;;;;;;5052512;28;1121;-70
2021/04/10 13:36:12;;;;;;;;;;;21.00;54.70;;;;;;5052343;28;1071;-70
2021/04/10 13:38:37;;;;;;;;;;;21.00;54.70;;;;;;5050779;28;1347;-70
2021/04/10 13:41:03;;;;;;;;;;;21.00;54.60;;;;;;5052262;28;1336;-69
2021/04/10 13:43:29;;;;;;;;;;;21.00;54.60;;;;;;5050968;28;1356;-70
2021/04/10 13:45:54;;;;;;;;;;;21.00;54.60;;;;;;5042363;28;1977;-69
2021/04/10 13:48:20;;;;;;;;;;;21.00;54.60;;;;;;5052236;28;1372;-69
2021/04/10 13:50:47;;;;;;;;;;;21.00;54.50;;;;;;5051714;28;1393;-70
2021/04/10 13:53:12;;;;;;;;;;;21.00;54.50;;;;;;5052432;28;1413;-70
2021/04/10 13:55:38;;;;;;;;;;;21.00;54.50;;;;;;5051854;28;1351;-70
2021/04/10 13:58:03;;;;;;;;;;;21.10;54.50;;;;;;5051607;28;1358;-70
2021/04/10 14:00:29;;;;;;;;;;;21.10;54.50;;;;;;5052056;28;1067;-69
2021/04/10 14:02:54;;;;;;;;;;;21.10;54.50;;;;;;5052173;28;1043;-70
2021/04/10 14:05:20;;;;;;;;;;;21.10;54.40;;;;;;5055371;28;1297;-70
2021/04/10 14:07:45;;;;;;;;;;;21.10;54.50;;;;;;5061690;28;1894;-70
2021/04/10 14:10:12;;;;;;;;;;;21.10;54.40;;;;;;5051940;28;1388;-67
2021/04/10 14:12:38;;;;;;;;;;;21.10;54.40;;;;;;5050641;28;1250;-67
2021/04/10 14:15:04;;;;;;;;;;;21.10;54.40;;;;;;5050948;28;1122;-68
2021/04/10 14:17:30;;;;;;;;;;;21.10;54.40;;;;;;5050120;28;1236;-67
2021/04/10 14:19:56;;;;;;;;;;;21.10;54.40;;;;;;5051930;28;1253;-67
2021/04/10 14:22:21;;;;;;;;;;;21.10;54.40;;;;;;5051726;28;1269;-67
2021/04/10 14:24:47;;;;;;;;;;;21.10;54.40;;;;;;5048490;28;1338;-67
2021/04/10 14:27:12;;;;;;;;;;;21.10;54.50;;;;;;5039363;28;1894;-67